Time;durP1;ratioP1;P1;durP2;ratioP2;P2;SDS_P1;SDS_P2;PMS_P1;PMS_P2;Temp;Humidity;BMP_temperature;BMP_pressure;BME280_temperature;BME280_humidity;BME280_pressure;Samples;Min_cycle;Max_cycle;Signal;HPM_P1;HPM_P2
2021/04/26 00:00:21;;;;;;;7.32;3.70;;;;;;;5.20;80.77;96140.56;1023378;29;20600;-52
2021/04/26 00:00:52;;;;;;;7.22;3.40;;;;;;;5.19;80.89;96133.66;1027520;28;20034;-49
2021/04/26 00:01:23;;;;;;;10.70;4.35;;;;;;;5.18;82.12;96136.31;1023653;29;20772;-51
2021/04/26 00:01:53;;;;;;;8.07;3.30;;;;;;;5.14;81.98;96133.03;1023570;29;20031;-50
2021/04/26 00:02:24;;;;;;;7.18;3.53;;;;;;;5.13;82.70;96130.53;1023418;29;20034;-51
2021/04/26 00:02:57;;;;;;;7.03;3.45;;;;;;;5.07;82.73;96134.25;1023438;29;20034;-49
2021/04/26 00:03:27;;;;;;;5.97;3.53;;;;;;;5.05;83.42;96129.13;1027503;28;20030;-50
2021/04/26 00:03:58;;;;;;;8.00;3.55;;;;;;;5.04;82.78;96132.59;1027241;28;20285;-51
2021/04/26 00:04:30;;;;;;;7.97;3.50;;;;;;;5.05;82.63;96133.47;1031357;28;20031;-49
2021/04/26 00:05:01;;;;;;;6.65;3.53;;;;;;;5.07;82.47;96135.06;1027541;28;20262;-49
2021/04/26 00:05:31;;;;;;;6.30;3.40;;;;;;;5.09;82.24;96132.41;1023646;29;20266;-49
2021/04/26 00:06:02;;;;;;;9.52;3.50;;;;;;;5.10;82.73;96126.28;1035494;28;20036;-50
2021/04/26 00:06:33;;;;;;;6.63;3.47;;;;;;;5.09;82.96;96124.63;1027451;28;20023;-49
2021/04/26 00:07:04;;;;;;;9.20;3.28;;;;;;;5.09;82.67;96128.97;1027457;28;20030;-50
2021/04/26 00:07:35;;;;;;;10.30;3.80;;;;;;;5.08;82.26;96122.94;1027602;28;20027;-49
2021/04/26 00:08:06;;;;;;;9.40;3.47;;;;;;;5.02;83.46;96129.25;1023687;29;20031;-50
2021/04/26 00:08:37;;;;;;;7.13;3.80;;;;;;;4.99;83.10;96121.63;1027841;28;20126;-51
2021/04/26 00:09:07;;;;;;;8.48;3.67;;;;;;;5.04;82.74;96131.78;1020314;28;20028;-49
2021/04/26 00:09:39;;;;;;;6.45;3.33;;;;;;;5.05;82.52;96125.69;1028355;28;20025;-48
2021/04/26 00:10:11;;;;;;;6.82;3.20;;;;;;;5.03;83.32;96124.88;1028196;28;20027;-49
2021/04/26 00:10:42;;;;;;;9.25;4.03;;;;;;;4.98;83.94;96122.50;1036239;28;20330;-49
2021/04/26 00:11:12;;;;;;;6.47;3.65;;;;;;;4.98;83.43;96132.06;1031925;28;20269;-51
2021/04/26 00:11:43;;;;;;;9.18;3.72;;;;;;;4.98;83.76;96132.91;1024258;28;20481;-50
2021/04/26 00:12:15;;;;;;;8.15;3.40;;;;;;;4.95;83.75;96124.41;1028186;28;20489;-50
2021/04/26 00:12:46;;;;;;;10.23;5.03;;;;;;;4.98;83.86;96127.72;1028128;28;20261;-50
2021/04/26 00:13:16;;;;;;;7.53;3.72;;;;;;;4.96;83.75;96126.09;1028155;28;20074;-50
2021/04/26 00:13:48;;;;;;;15.35;5.05;;;;;;;4.96;83.59;96124.34;1024129;29;20342;-50
2021/04/26 00:14:19;;;;;;;5.53;3.30;;;;;;;4.97;84.05;96127.75;1028264;28;20030;-52
2021/04/26 00:14:50;;;;;;;7.20;3.30;;;;;;;4.96;83.65;96126.09;1024198;29;20278;-50
2021/04/26 00:15:24;;;;;;;6.95;4.18;;;;;;;4.93;84.46;96121.88;1024275;29;20054;-51
2021/04/26 00:15:55;;;;;;;7.15;3.70;;;;;;;4.90;84.42;96103.84;1024289;29;20330;-51
2021/04/26 00:16:26;;;;;;;7.50;3.72;;;;;;;4.93;83.96;96121.03;1024219;29;20776;-50
2021/04/26 00:16:57;;;;;;;8.68;3.13;;;;;;;4.87;84.75;96112.59;1024223;28;20132;-52
2021/04/26 00:17:28;;;;;;;7.47;3.65;;;;;;;4.87;84.98;96109.16;1020265;29;20055;-49
2021/04/26 00:17:59;;;;;;;8.13;3.95;;;;;;;4.85;85.42;96116.19;1020333;29;20409;-50
2021/04/26 00:18:31;;;;;;;8.70;3.97;;;;;;;4.86;85.10;96118.72;1024267;29;20626;-49
2021/04/26 00:19:03;;;;;;;6.88;4.10;;;;;;;4.83;85.76;96113.66;1024085;29;20362;-50
2021/04/26 00:19:34;;;;;;;7.22;3.75;;;;;;;4.83;85.11;96105.03;1020290;29;20670;-49
2021/04/26 00:20:07;;;;;;;6.45;3.50;;;;;;;4.83;85.35;96105.88;1024208;28;20255;-50
2021/04/26 00:20:39;;;;;;;6.40;3.60;;;;;;;4.82;85.95;96106.78;1024258;28;20027;-50
2021/04/26 00:21:09;;;;;;;8.60;3.30;;;;;;;4.82;85.77;96106.78;1028087;28;20353;-49
2021/04/26 00:21:40;;;;;;;6.60;3.67;;;;;;;4.78;85.62;96102.63;1028250;28;20266;-51
2021/04/26 00:22:11;;;;;;;6.43;3.45;;;;;;;4.73;87.13;96096.81;1024281;29;20485;-54
2021/04/26 00:22:42;;;;;;;6.72;3.63;;;;;;;4.74;86.58;96093.31;1020286;29;20019;-50
2021/04/26 00:23:13;;;;;;;9.25;4.00;;;;;;;4.75;86.59;96100.19;1020196;29;20271;-49
2021/04/26 00:23:44;;;;;;;6.72;3.55;;;;;;;4.73;86.69;96101.16;1024008;29;20027;-49
2021/04/26 00:24:15;;;;;;;7.85;3.55;;;;;;;4.72;86.42;96097.72;1024142;29;20572;-49
2021/04/26 00:24:46;;;;;;;6.80;3.55;;;;;;;4.74;86.59;96092.47;1032195;28;20031;-49
2021/04/26 00:25:17;;;;;;;6.68;3.65;;;;;;;4.75;86.92;96099.31;1024166;28;20375;-50
2021/04/26 00:25:48;;;;;;;7.45;3.60;;;;;;;4.73;86.37;96089.03;1028177;28;20504;-50
2021/04/26 00:26:19;;;;;;;6.35;3.47;;;;;;;4.73;86.64;96086.44;1028194;28;20027;-50
2021/04/26 00:26:50;;;;;;;6.60;4.13;;;;;;;4.70;87.33;96080.53;1032249;28;20058;-49
2021/04/26 00:27:21;;;;;;;8.25;3.47;;;;;;;4.67;87.69;96087.56;1024162;29;20263;-50
2021/04/26 00:27:51;;;;;;;8.02;3.72;;;;;;;4.69;87.09;96090.06;1024160;28;20259;-50
2021/04/26 00:28:23;;;;;;;8.35;3.80;;;;;;;4.70;86.67;96083.97;1020271;29;20035;-50
2021/04/26 00:28:54;;;;;;;10.02;4.00;;;;;;;4.70;87.51;96085.72;1024169;29;20094;-51
2021/04/26 00:29:25;;;;;;;7.35;3.80;;;;;;;4.67;87.66;96091.88;1024045;28;20341;-49
2021/04/26 00:29:56;;;;;;;9.40;3.58;;;;;;;4.59;88.51;96088.81;1024260;29;20053;-52
2021/04/26 00:30:27;;;;;;;10.55;4.38;;;;;;;4.57;88.50;96080.25;1028191;28;20343;-49
2021/04/26 00:30:58;;;;;;;9.35;4.28;;;;;;;4.61;88.96;96084.38;1032169;28;20266;-50
2021/04/26 00:31:29;;;;;;;7.40;3.83;;;;;;;4.60;88.14;96083.56;1028023;28;20027;-50
2021/04/26 00:32:00;;;;;;;7.78;3.38;;;;;;;4.59;88.96;96081.03;1024266;28;20259;-51
2021/04/26 00:32:30;;;;;;;8.25;3.75;;;;;;;4.54;88.70;96082.97;1024179;29;20023;-50
2021/04/26 00:33:01;;;;;;;6.57;3.50;;;;;;;4.53;88.84;96086.50;1024356;29;20087;-48
2021/04/26 00:33:32;;;;;;;7.70;3.92;;;;;;;4.50;89.22;96077.06;1031998;28;20105;-49
2021/04/26 00:34:03;;;;;;;9.73;3.60;;;;;;;4.53;89.67;96078.69;1024235;28;20081;-50
2021/04/26 00:34:34;;;;;;;6.68;3.63;;;;;;;4.52;88.92;96077.84;1028354;28;20014;-51
2021/04/26 00:35:06;;;;;;;8.60;3.92;;;;;;;4.52;88.98;96077.84;1028231;28;20409;-49
2021/04/26 00:35:37;;;;;;;6.68;3.45;;;;;;;4.51;89.68;96073.56;1024095;29;20031;-49
2021/04/26 00:36:09;;;;;;;6.63;3.42;;;;;;;4.50;89.94;96071.03;1028260;28;20259;-52
2021/04/26 00:36:40;;;;;;;8.02;3.95;;;;;;;4.50;89.97;96078.81;1028195;28;20038;-50
2021/04/26 00:37:11;;;;;;;10.23;4.75;;;;;;;4.47;89.46;96070.28;1024184;28;20262;-50
2021/04/26 00:37:42;;;;;;;7.60;3.80;;;;;;;4.51;89.99;96072.75;1032109;28;20296;-50
2021/04/26 00:38:13;;;;;;;7.93;4.40;;;;;;;4.44;90.11;96075.59;1024227;29;20270;-49
2021/04/26 00:38:44;;;;;;;9.18;3.97;;;;;;;4.40;90.03;96073.22;1021023;29;20387;-51
2021/04/26 00:39:15;;;;;;;7.13;4.22;;;;;;;4.40;90.66;96068.03;1024205;28;20114;-51
2021/04/26 00:39:46;;;;;;;8.45;3.92;;;;;;;4.39;90.68;96066.31;1028129;28;20019;-51
2021/04/26 00:40:17;;;;;;;8.40;4.07;;;;;;;4.39;91.18;96066.31;1024342;29;20621;-51
2021/04/26 00:40:48;;;;;;;6.95;3.58;;;;;;;4.41;90.50;96067.97;1024143;29;20027;-50
2021/04/26 00:41:20;;;;;;;9.25;4.25;;;;;;;4.40;90.58;96066.25;1028288;28;20297;-49
2021/04/26 00:41:51;;;;;;;7.00;3.75;;;;;;;4.42;90.91;96072.22;1027928;28;20121;-48
2021/04/26 00:42:22;;;;;;;6.47;3.85;;;;;;;4.39;90.93;96074.97;1024149;28;20259;-48
2021/04/26 00:42:53;;;;;;;9.68;3.90;;;;;;;4.38;91.34;96070.69;1024174;28;20042;-49
2021/04/26 00:43:24;;;;;;;6.88;3.60;;;;;;;4.35;90.94;96063.03;1024019;29;20266;-50
2021/04/26 00:43:55;;;;;;;8.18;3.92;;;;;;;4.36;91.04;96064.72;1027823;28;20254;-51
2021/04/26 00:44:26;;;;;;;8.13;4.13;;;;;;;4.37;91.31;96061.19;1032116;28;20540;-49
2021/04/26 00:44:57;;;;;;;8.48;4.00;;;;;;;4.38;91.12;96069.84;1024181;28;20310;-50
2021/04/26 00:45:28;;;;;;;6.45;3.83;;;;;;;4.33;91.04;96070.03;1024178;29;20035;-49
2021/04/26 00:45:59;;;;;;;6.45;3.95;;;;;;;4.32;91.00;96060.56;1020087;29;20032;-50
2021/04/26 00:46:30;;;;;;;8.10;3.97;;;;;;;4.32;90.74;96064.91;1024167;28;20055;-49
2021/04/26 00:47:00;;;;;;;8.05;3.85;;;;;;;4.35;91.39;96057.81;1024141;28;20299;-49
2021/04/26 00:47:31;;;;;;;6.55;4.20;;;;;;;4.32;91.51;96064.91;1024188;29;20019;-49
2021/04/26 00:48:03;;;;;;;9.20;4.20;;;;;;;4.27;91.84;96058.16;1023998;29;20027;-51
2021/04/26 00:48:34;;;;;;;6.65;4.03;;;;;;;4.26;91.57;96055.63;1024120;29;20282;-49
2021/04/26 00:49:04;;;;;;;7.82;3.75;;;;;;;4.25;91.94;96059.16;1020105;28;20637;-50
2021/04/26 00:49:35;;;;;;;7.00;3.80;;;;;;;4.23;92.26;96061.81;1032111;28;20268;-49
2021/04/26 00:50:08;;;;;;;12.55;4.38;;;;;;;4.24;92.10;96063.50;1028040;28;20466;-49
2021/04/26 00:50:40;;;;;;;8.15;4.25;;;;;;;4.26;91.65;96056.50;1020173;29;20515;-49
2021/04/26 00:51:11;;;;;;;8.00;3.92;;;;;;;4.23;92.70;96063.56;1024079;29;20811;-48
2021/04/26 00:51:42;;;;;;;7.43;3.80;;;;;;;4.22;92.71;96052.38;1028077;28;20473;-50
2021/04/26 00:52:13;;;;;;;6.30;3.88;;;;;;;4.22;92.29;96054.09;1020005;29;20075;-48
2021/04/26 00:52:45;;;;;;;10.45;3.97;;;;;;;4.21;92.64;96061.03;1032098;28;20069;-49
2021/04/26 00:53:16;;;;;;;9.00;4.03;;;;;;;4.22;92.58;96060.16;1032054;28;20135;-50
2021/04/26 00:53:47;;;;;;;10.45;4.13;;;;;;;4.23;92.27;96058.38;1023929;29;20788;-50
2021/04/26 00:54:18;;;;;;;7.85;4.32;;;;;;;4.19;92.60;96052.47;1023946;29;20267;-50
2021/04/26 00:54:49;;;;;;;10.93;4.63;;;;;;;4.17;92.82;96058.66;1020250;29;20031;-50
2021/04/26 00:55:21;;;;;;;8.70;3.95;;;;;;;4.20;92.54;96058.50;1028089;28;20408;-49
2021/04/26 00:55:52;;;;;;;7.47;3.90;;;;;;;4.21;93.41;96049.84;1031988;28;20076;-49
2021/04/26 00:56:24;;;;;;;7.40;3.90;;;;;;;4.19;92.97;96051.66;1028081;28;20274;-49
2021/04/26 00:56:55;;;;;;;8.55;3.88;;;;;;;4.19;92.85;96051.66;1024054;28;20273;-51
2021/04/26 00:57:26;;;;;;;8.52;4.30;;;;;;;4.19;92.79;96051.66;1024062;29;20777;-49
2021/04/26 00:57:57;;;;;;;7.65;3.92;;;;;;;4.17;92.50;96051.72;1024106;28;20839;-48
2021/04/26 00:58:28;;;;;;;7.72;4.50;;;;;;;4.18;92.81;96048.19;1031979;28;20262;-50
2021/04/26 00:58:59;;;;;;;9.48;4.35;;;;;;;4.13;93.07;96044.13;1023949;29;20501;-50
2021/04/26 00:59:32;;;;;;;8.43;4.43;;;;;;;4.13;93.49;96049.31;1028207;28;20312;-50
2021/04/26 01:00:05;;;;;;;10.45;4.18;;;;;;;4.08;94.15;96044.31;1023908;29;20270;-50
2021/04/26 01:00:37;;;;;;;7.65;3.75;;;;;;;4.12;93.90;96042.44;1032008;28;20250;-49
2021/04/26 01:01:09;;;;;;;6.40;3.90;;;;;;;4.04;94.15;96041.03;1032034;28;20747;-50
2021/04/26 01:01:40;;;;;;;6.20;3.75;;;;;;;4.04;94.15;96043.63;1032135;28;20731;-49
2021/04/26 01:02:11;;;;;;;10.13;4.38;;;;;;;4.08;93.53;96042.56;1024055;29;20773;-49
2021/04/26 01:02:41;;;;;;;9.73;4.60;;;;;;;4.06;94.41;96040.97;1024036;28;20314;-49
2021/04/26 01:03:12;;;;;;;9.45;4.28;;;;;;;4.07;94.00;96045.22;1024049;29;20714;-50
2021/04/26 01:03:43;;;;;;;9.23;3.70;;;;;;;4.06;93.94;96040.97;1027886;28;20386;-51
2021/04/26 01:04:14;;;;;;;10.00;4.55;;;;;;;4.04;94.13;96038.44;1027931;28;20022;-50
2021/04/26 01:04:45;;;;;;;10.68;3.78;;;;;;;4.04;93.96;96043.63;1031990;28;20616;-50
2021/04/26 01:05:18;;;;;;;7.15;3.92;;;;;;;4.02;93.94;96036.81;1024078;28;20035;-50
2021/04/26 01:05:49;;;;;;;9.05;4.07;;;;;;;4.03;94.46;96038.50;1028137;28;20266;-50
2021/04/26 01:06:21;;;;;;;10.43;4.50;;;;;;;4.02;94.25;96040.25;1028010;28;20281;-48
2021/04/26 01:06:52;;;;;;;7.18;4.00;;;;;;;4.02;94.70;96042.84;1028010;28;20269;-50
2021/04/26 01:07:24;;;;;;;7.13;4.15;;;;;;;4.05;94.16;96034.06;1032062;28;20273;-50
2021/04/26 01:07:55;;;;;;;7.57;4.07;;;;;;;4.05;94.04;96036.66;1028064;28;20027;-48
2021/04/26 01:08:26;;;;;;;9.73;3.80;;;;;;;4.05;94.59;96037.53;1020143;29;20358;-50
2021/04/26 01:08:57;;;;;;;7.32;4.45;;;;;;;4.07;93.69;96046.09;1027807;28;20266;-50
2021/04/26 01:09:28;;;;;;;11.77;4.72;;;;;;;4.02;94.17;96039.41;1028021;28;20266;-49
2021/04/26 01:09:58;;;;;;;9.80;4.57;;;;;;;4.02;94.08;96037.66;1020001;29;20342;-50
2021/04/26 01:10:30;;;;;;;8.70;4.80;;;;;;;4.01;94.52;96045.50;1028112;28;20109;-49
2021/04/26 01:11:01;;;;;;;9.55;4.20;;;;;;;3.99;94.53;96034.34;1019961;29;20034;-50
2021/04/26 01:11:37;;;;;;;8.60;3.97;;;;;;;4.00;94.53;96038.63;1031057;28;20337;-50
2021/04/26 01:12:12;;;;;;;7.53;3.90;;;;;;;4.00;94.46;96049.84;1024021;29;20027;-50
2021/04/26 01:12:54;;;;;;;10.27;4.53;;;;;;;3.91;95.18;96037.28;1028016;28;20699;-50
2021/04/26 01:13:29;;;;;;;9.40;5.00;;;;;;;3.93;94.94;96034.63;1023952;29;20645;-49
2021/04/26 01:14:06;;;;;;;6.55;3.97;;;;;;;3.93;94.68;96032.88;1031935;28;20284;-49
2021/04/26 01:14:42;;;;;;;10.65;5.47;;;;;;;3.91;95.03;96031.25;1032088;28;20380;-49
2021/04/26 01:15:19;;;;;;;8.35;4.40;;;;;;;3.87;95.01;96033.97;1031987;28;20345;-49
2021/04/26 01:16:03;;;;;;;6.68;4.22;;;;;;;3.84;95.69;96028.06;1020033;29;20290;-49
2021/04/26 01:16:39;;;;;;;8.07;4.90;;;;;;;3.86;95.42;96029.69;1028018;28;20266;-50
2021/04/26 01:17:13;;;;;;;7.80;4.40;;;;;;;3.85;95.41;96022.00;1027948;28;20266;-49
2021/04/26 01:17:47;;;;;;;8.70;4.55;;;;;;;3.84;95.31;96026.31;1024099;28;20646;-49
2021/04/26 01:18:32;;;;;;;10.45;5.18;;;;;;;3.82;95.39;96024.69;1027986;28;20270;-50
2021/04/26 01:19:22;;;;;;;13.35;4.53;;;;;;;3.81;95.07;96029.06;1020051;28;20327;-50
2021/04/26 01:19:57;;;;;;;7.10;4.13;;;;;;;3.81;95.53;96023.00;1027937;28;20270;-49
2021/04/26 01:20:42;;;;;;;8.95;4.30;;;;;;;3.78;95.45;96021.41;1028025;28;20266;-50
2021/04/26 01:21:31;;;;;;;9.25;4.78;;;;;;;3.77;95.64;96021.47;1032023;28;20261;-49
2021/04/26 01:22:13;;;;;;;7.43;4.78;;;;;;;3.73;96.20;96019.91;1024014;29;20638;-49
2021/04/26 01:23:03;;;;;;;10.02;4.47;;;;;;;3.70;96.28;96023.47;1020150;29;20278;-50
2021/04/26 01:23:55;;;;;;;9.38;4.18;;;;;;;3.72;95.63;96018.22;1019751;29;20352;-49
2021/04/26 01:24:28;;;;;;;7.55;4.30;;;;;;;3.72;95.71;96018.22;1027013;28;20034;-49
2021/04/26 01:25:04;;;;;;;8.27;4.05;;;;;;;3.72;95.96;96013.88;1023989;29;20789;-50
2021/04/26 01:25:35;;;;;;;13.63;4.68;;;;;;;3.72;95.69;96015.63;1019888;29;20722;-49
2021/04/26 01:26:09;;;;;;;8.63;4.80;;;;;;;3.67;95.71;96015.81;1027946;28;20262;-49
2021/04/26 01:26:53;;;;;;;9.43;4.60;;;;;;;3.64;96.49;96022.00;1032184;28;20557;-48
2021/04/26 01:27:43;;;;;;;10.10;4.25;;;;;;;3.65;96.50;96015.03;1031990;28;20261;-52
2021/04/26 01:28:24;;;;;;;8.63;5.03;;;;;;;3.60;96.82;96019.56;1028065;28;20637;-50
2021/04/26 01:29:04;;;;;;;8.75;4.43;;;;;;;3.57;97.22;96023.16;1024113;28;20409;-50
2021/04/26 01:29:46;;;;;;;7.82;4.57;;;;;;;3.59;97.26;96013.56;1028029;28;20269;-50
2021/04/26 01:30:28;;;;;;;8.48;4.78;;;;;;;3.58;97.38;96016.22;1031988;28;20522;-50
2021/04/26 01:31:11;;;;;;;10.60;5.22;;;;;;;3.55;97.46;96016.31;1027964;28;20270;-50
2021/04/26 01:31:54;;;;;;;9.15;5.00;;;;;;;3.59;96.69;96012.72;1027917;28;20320;-49
2021/04/26 01:32:44;;;;;;;12.93;4.97;;;;;;;3.54;96.95;96012.91;1023974;29;20672;-50
2021/04/26 01:33:20;;;;;;;11.23;4.85;;;;;;;3.50;97.36;96012.19;1023941;29;20628;-48
2021/04/26 01:33:53;;;;;;;10.48;4.65;;;;;;;3.50;97.05;96012.19;1019755;29;20028;-50
2021/04/26 01:34:24;;;;;;;11.68;4.75;;;;;;;3.47;97.09;96008.88;1023720;29;20259;-49
2021/04/26 01:34:55;;;;;;;9.23;4.20;;;;;;;3.50;97.48;96017.34;1023977;29;20638;-50
2021/04/26 01:35:27;;;;;;;7.13;3.88;;;;;;;3.49;97.47;96009.66;1031955;28;20033;-49
2021/04/26 01:36:00;;;;;;;7.25;4.35;;;;;;;3.47;97.52;96011.47;1031782;28;20249;-48
2021/04/26 01:36:31;;;;;;;9.35;4.60;;;;;;;3.46;97.23;96012.38;1027928;28;20349;-50
2021/04/26 01:37:02;;;;;;;8.32;4.47;;;;;;;3.44;97.30;96004.66;1019942;29;20260;-50
2021/04/26 01:37:35;;;;;;;10.93;5.32;;;;;;;3.45;97.54;96008.09;1032033;28;20069;-50
2021/04/26 01:38:16;;;;;;;8.27;4.50;;;;;;;3.50;97.27;96012.19;1027802;28;20691;-48
2021/04/26 01:38:47;;;;;;;8.27;4.70;;;;;;;3.46;97.35;96013.22;1023891;28;20367;-49
2021/04/26 01:39:18;;;;;;;8.70;4.70;;;;;;;3.46;97.32;96010.63;1023863;29;20818;-50
2021/04/26 01:39:49;;;;;;;8.82;4.40;;;;;;;3.46;97.12;96015.81;1023950;29;20535;-49
2021/04/26 01:40:21;;;;;;;9.00;4.88;;;;;;;3.45;97.60;96013.28;1019788;29;20792;-48
2021/04/26 01:40:53;;;;;;;9.00;4.72;;;;;;;3.42;97.46;96016.84;1027987;28;20296;-50
2021/04/26 01:41:24;;;;;;;9.50;4.72;;;;;;;3.44;97.52;96014.19;1027880;28;20259;-50
2021/04/26 01:41:55;;;;;;;9.52;5.03;;;;;;;3.42;97.69;96011.66;1028490;28;20302;-51
2021/04/26 01:42:26;;;;;;;10.38;4.75;;;;;;;3.39;98.15;96009.19;1027793;28;20282;-49
2021/04/26 01:42:58;;;;;;;9.07;4.70;;;;;;;3.39;98.30;96005.75;1023998;28;20465;-50
2021/04/26 01:43:29;;;;;;;7.28;4.25;;;;;;;3.36;98.00;96008.47;1023804;29;20592;-49
2021/04/26 01:44:01;;;;;;;9.35;4.43;;;;;;;3.35;98.00;96007.63;1027833;28;20262;-50
2021/04/26 01:44:31;;;;;;;8.93;4.40;;;;;;;3.36;97.96;96003.28;1019771;29;20291;-48
2021/04/26 01:45:05;;;;;;;7.75;4.30;;;;;;;3.37;98.02;96000.66;1023958;28;20258;-48
2021/04/26 01:45:37;;;;;;;8.00;4.45;;;;;;;3.39;97.59;96003.19;1023960;29;20113;-49
2021/04/26 01:46:10;;;;;;;8.18;4.60;;;;;;;3.43;97.57;96002.13;1023890;29;20267;-49
2021/04/26 01:46:41;;;;;;;11.20;5.43;;;;;;;3.40;97.61;95997.09;1027777;28;20265;-52
2021/04/26 01:47:12;;;;;;;8.07;5.00;;;;;;;3.39;97.68;95995.41;1023944;29;20263;-50
2021/04/26 01:47:44;;;;;;;9.18;4.55;;;;;;;3.40;97.45;95999.69;1020033;29;20023;-48
2021/04/26 01:48:15;;;;;;;8.60;4.25;;;;;;;3.37;97.72;95990.28;1020049;29;20409;-50
2021/04/26 01:48:47;;;;;;;10.20;4.43;;;;;;;3.37;97.54;95992.88;1031762;28;20311;-49
2021/04/26 01:49:19;;;;;;;12.57;4.75;;;;;;;3.35;97.57;95988.66;1031921;28;20304;-49
2021/04/26 01:49:50;;;;;;;10.68;4.70;;;;;;;3.34;97.98;95993.03;1023935;29;20655;-50
2021/04/26 01:50:21;;;;;;;8.32;4.78;;;;;;;3.39;97.15;95995.41;1023905;29;20704;-50
2021/04/26 01:50:52;;;;;;;9.80;4.80;;;;;;;3.38;97.83;95991.13;1027873;28;20270;-49
2021/04/26 01:51:23;;;;;;;11.88;5.15;;;;;;;3.36;97.53;95995.53;1027884;28;20321;-50
2021/04/26 01:51:54;;;;;;;11.27;5.10;;;;;;;3.35;97.13;95993.84;1027819;28;20624;-48
2021/04/26 01:52:25;;;;;;;7.85;4.93;;;;;;;3.34;97.78;95993.03;1027778;28;20023;-50
2021/04/26 01:52:56;;;;;;;8.95;4.30;;;;;;;3.35;97.97;95992.09;1027833;28;20258;-50
2021/04/26 01:53:28;;;;;;;9.55;4.75;;;;;;;3.35;97.26;95991.25;1027743;28;20281;-49
2021/04/26 01:53:59;;;;;;;8.10;4.57;;;;;;;3.34;97.16;95984.38;1027810;28;20019;-51
2021/04/26 01:54:30;;;;;;;11.48;4.85;;;;;;;3.35;97.34;95981.75;1023871;28;20259;-50
2021/04/26 01:55:02;;;;;;;9.07;4.40;;;;;;;3.33;97.48;95988.72;1019877;29;20024;-49
2021/04/26 01:55:34;;;;;;;7.85;4.88;;;;;;;3.33;97.51;95986.13;1019973;29;20074;-51
2021/04/26 01:56:05;;;;;;;9.90;5.10;;;;;;;3.32;97.79;95989.63;1023850;29;20286;-48
2021/04/26 01:56:36;;;;;;;9.48;4.55;;;;;;;3.31;97.66;95988.78;1023838;28;20258;-49
2021/04/26 01:57:08;;;;;;;9.48;4.55;;;;;;;3.32;97.29;95976.69;1023828;29;20271;-50
2021/04/26 01:57:40;;;;;;;13.85;5.28;;;;;;;3.31;97.92;95987.97;1019997;29;20078;-49
2021/04/26 01:58:13;;;;;;;10.70;5.40;;;;;;;3.31;97.21;95981.03;1020018;29;20286;-50
2021/04/26 01:58:47;;;;;;;9.43;5.10;;;;;;;3.31;97.47;95978.44;1019848;29;20274;-50
2021/04/26 01:59:17;;;;;;;8.15;5.03;;;;;;;3.32;97.06;95981.84;1020018;29;20777;-51
2021/04/26 01:59:48;;;;;;;9.27;4.43;;;;;;;3.29;97.30;95982.84;1023846;29;20265;-48
2021/04/26 02:00:28;;;;;;;6.75;4.70;;;;;;;3.30;97.19;95973.31;1019983;29;20047;-51
2021/04/26 02:00:59;;;;;;;6.80;4.00;;;;;;;3.27;97.66;95978.63;1019972;29;20740;-49
2021/04/26 02:01:30;;;;;;;6.97;4.82;;;;;;;3.27;97.55;95976.03;1023854;29;20045;-50
2021/04/26 02:02:01;;;;;;;8.18;4.55;;;;;;;3.30;97.33;95974.19;1024064;29;20274;-49
2021/04/26 02:02:32;;;;;;;9.02;4.70;;;;;;;3.29;97.49;95974.22;1027983;28;20086;-51
2021/04/26 02:03:03;;;;;;;9.65;4.38;;;;;;;3.23;97.91;95974.47;1027979;28;20025;-49
2021/04/26 02:03:34;;;;;;;11.43;4.78;;;;;;;3.23;98.02;95977.91;1031564;28;20539;-50
2021/04/26 02:04:05;;;;;;;7.25;4.43;;;;;;;3.25;97.50;95973.50;1019862;29;20338;-48
2021/04/26 02:04:36;;;;;;;8.50;4.40;;;;;;;3.26;97.47;95977.78;1027774;28;20787;-50
2021/04/26 02:05:08;;;;;;;11.13;5.22;;;;;;;3.24;98.08;95974.41;1023867;28;20251;-49
2021/04/26 02:05:39;;;;;;;7.03;4.40;;;;;;;3.23;97.67;95975.31;1023769;29;20286;-49
2021/04/26 02:06:09;;;;;;;12.73;4.97;;;;;;;3.24;97.64;95978.75;1020022;29;20327;-50
2021/04/26 02:06:40;;;;;;;10.15;4.60;;;;;;;3.25;97.56;95983.03;1027905;28;20409;-49
2021/04/26 02:07:11;;;;;;;11.88;5.18;;;;;;;3.25;98.21;95978.69;1023798;29;20035;-49
2021/04/26 02:07:44;;;;;;;9.02;5.25;;;;;;;3.18;98.31;95977.25;1019893;28;20026;-50
2021/04/26 02:08:15;;;;;;;7.88;4.50;;;;;;;3.18;98.36;95982.44;1023846;28;20030;-48
2021/04/26 02:08:46;;;;;;;7.10;4.32;;;;;;;3.20;98.10;95983.22;1023686;28;20284;-51
2021/04/26 02:09:17;;;;;;;7.45;4.18;;;;;;;3.18;97.97;95982.44;1019688;29;20342;-49
2021/04/26 02:09:47;;;;;;;8.32;4.68;;;;;;;3.19;97.81;95978.09;1023821;29;20020;-49
2021/04/26 02:10:22;;;;;;;9.68;5.18;;;;;;;3.19;97.96;95988.44;1023954;28;20259;-49
2021/04/26 02:10:53;;;;;;;9.40;4.65;;;;;;;3.19;98.15;95988.44;1027872;28;20109;-50
2021/04/26 02:11:25;;;;;;;9.07;4.50;;;;;;;3.17;98.78;95993.69;1029622;28;20258;-50
2021/04/26 02:11:57;;;;;;;8.73;4.72;;;;;;;3.17;98.49;95988.50;1027749;28;20295;-51
2021/04/26 02:12:28;;;;;;;8.75;4.57;;;;;;;3.16;98.70;95986.84;1023851;28;20263;-51
2021/04/26 02:12:59;;;;;;;8.63;4.97;;;;;;;3.13;98.37;95986.09;1023897;29;20259;-50
2021/04/26 02:13:30;;;;;;;7.93;4.53;;;;;;;3.14;98.72;95990.41;1019692;29;20560;-48
2021/04/26 02:14:00;;;;;;;9.50;4.70;;;;;;;3.14;98.15;95987.81;1019922;29;20493;-49
2021/04/26 02:14:31;;;;;;;10.43;4.60;;;;;;;3.15;98.54;95992.91;1023963;29;20019;-49
2021/04/26 02:15:02;;;;;;;10.88;4.70;;;;;;;3.15;98.39;95992.06;1035957;28;20133;-50
2021/04/26 02:15:33;;;;;;;8.25;4.20;;;;;;;3.12;98.33;95990.44;1027785;28;20272;-49
2021/04/26 02:16:04;;;;;;;11.90;4.95;;;;;;;3.14;97.94;95996.41;1019880;29;20439;-50
2021/04/26 02:16:35;;;;;;;9.63;4.82;;;;;;;3.11;98.40;95991.34;1027862;28;20570;-49
2021/04/26 02:17:06;;;;;;;6.63;4.40;;;;;;;3.10;98.72;95994.84;1019917;29;20285;-51
2021/04/26 02:17:37;;;;;;;8.25;4.72;;;;;;;3.10;98.59;96000.03;1019792;29;20287;-48
2021/04/26 02:18:08;;;;;;;8.82;5.05;;;;;;;3.09;98.67;95993.16;1027802;28;20775;-51
2021/04/26 02:18:39;;;;;;;10.30;5.25;;;;;;;3.04;98.80;95990.75;1027766;28;20023;-49
2021/04/26 02:19:11;;;;;;;7.55;4.65;;;;;;;3.08;98.84;95996.66;1023886;28;20338;-48
2021/04/26 02:19:42;;;;;;;7.28;4.40;;;;;;;3.00;98.59;95984.00;1023711;29;20074;-50
2021/04/26 02:20:14;;;;;;;6.93;4.40;;;;;;;3.04;98.97;95998.53;1023865;28;20753;-49
2021/04/26 02:20:45;;;;;;;7.43;4.32;;;;;;;3.04;98.85;96002.84;1027837;28;20258;-50
2021/04/26 02:21:17;;;;;;;9.10;4.85;;;;;;;3.01;98.93;96001.22;1019911;29;20808;-49
2021/04/26 02:21:48;;;;;;;10.07;5.25;;;;;;;3.02;99.67;95999.47;1023752;29;20271;-49
2021/04/26 02:22:19;;;;;;;7.25;4.60;;;;;;;3.04;99.43;96001.13;1027775;28;20262;-49
2021/04/26 02:22:50;;;;;;;6.95;4.25;;;;;;;3.02;99.20;96004.66;1027861;28;20027;-50
2021/04/26 02:23:22;;;;;;;12.88;5.07;;;;;;;2.99;99.49;96007.38;1027860;28;20764;-49
2021/04/26 02:23:53;;;;;;;7.22;4.10;;;;;;;3.00;99.46;96007.28;1027471;28;20270;-52
2021/04/26 02:24:24;;;;;;;9.02;4.88;;;;;;;3.01;99.86;96008.16;1027737;28;20262;-48
2021/04/26 02:24:56;;;;;;;11.80;5.10;;;;;;;3.00;99.50;96009.88;1023812;28;20239;-50
2021/04/26 02:25:27;;;;;;;11.07;4.75;;;;;;;2.99;99.96;96013.38;1027704;28;20306;-51
2021/04/26 02:25:58;;;;;;;6.80;4.40;;;;;;;2.93;100.00;96011.06;1019782;29;20271;-50
2021/04/26 02:26:29;;;;;;;8.40;4.65;;;;;;;2.93;99.99;96008.47;1019898;29;20151;-51
2021/04/26 02:27:02;;;;;;;8.90;4.85;;;;;;;2.92;100.00;96011.94;1019879;29;20255;-48
2021/04/26 02:27:33;;;;;;;8.35;4.90;;;;;;;2.88;100.00;96011.22;1023809;28;20757;-51
2021/04/26 02:28:04;;;;;;;10.05;4.70;;;;;;;2.88;100.00;96015.56;1031702;28;20249;-48
2021/04/26 02:28:34;;;;;;;9.02;4.53;;;;;;;2.84;100.00;96014.00;1027822;28;20027;-49
2021/04/26 02:29:05;;;;;;;8.18;5.00;;;;;;;2.83;100.00;96007.13;1027744;28;20027;-49
2021/04/26 02:29:37;;;;;;;9.20;4.50;;;;;;;2.85;100.00;96008.75;1027787;28;20292;-49
2021/04/26 02:30:09;;;;;;;8.52;5.18;;;;;;;2.84;100.00;96014.81;1027694;28;20118;-50
2021/04/26 02:30:40;;;;;;;11.65;5.45;;;;;;;2.81;100.00;96008.94;1023737;29;20257;-49
2021/04/26 02:31:14;;;;;;;10.60;4.97;;;;;;;2.81;100.00;96012.34;1027512;28;20349;-49
2021/04/26 02:31:45;;;;;;;9.77;5.00;;;;;;;2.81;100.00;96014.09;1031761;28;20261;-49
2021/04/26 02:32:21;;;;;;;8.68;5.18;;;;;;;2.73;100.00;96004.06;1027597;28;20276;-48
2021/04/26 02:33:01;;;;;;;11.55;5.00;;;;;;;2.76;100.00;96011.72;1027865;28;20268;-50
2021/04/26 02:33:34;;;;;;;;;;;;;;;2.77;100.00;96015.13;1024151;29;20780;-49
2021/04/26 02:34:10;;;;;;;9.77;4.93;;;;;;;2.72;100.00;96010.09;1024724;28;19907;-49